Time;durP1;ratioP1;P1;durP2;ratioP2;P2;SDS_P1;SDS_P2;PMS_P1;PMS_P2;Temp;Humidity;BMP_temperature;BMP_pressure;BME280_temperature;BME280_humidity;BME280_pressure;Samples;Min_cycle;Max_cycle;Signal;HPM_P1;HPM_P2
2023/10/16 00:02:14;;;;;;;1999.90;999.90;;;3.10;99.90;;;;;;5116374;27;20101;-74
2023/10/16 00:04:44;;;;;;;1999.90;999.90;;;3.10;99.90;;;;;;5114621;28;20481;-74
2023/10/16 00:07:13;;;;;;;1999.90;999.90;;;3.00;99.90;;;;;;5115605;27;20032;-75
2023/10/16 00:09:40;;;;;;;1999.90;999.90;;;3.10;99.90;;;;;;5115553;27;20042;-75
2023/10/16 00:12:06;;;;;;;1999.90;999.90;;;3.00;99.90;;;;;;5116350;27;20059;-75
2023/10/16 00:14:32;;;;;;;1999.90;999.90;;;3.00;99.90;;;;;;5115947;28;20524;-74
2023/10/16 00:16:57;;;;;;;1999.90;999.90;;;3.00;99.90;;;;;;5114164;28;20034;-75
2023/10/16 00:19:26;;;;;;;1999.90;999.90;;;3.00;99.90;;;;;;5114591;27;20032;-74
2023/10/16 00:21:57;;;;;;;1999.90;999.90;;;3.00;99.90;;;;;;5115729;28;20035;-75
2023/10/16 00:24:22;;;;;;;1999.90;999.90;;;2.90;99.90;;;;;;5116069;27;20531;-75
2023/10/16 00:26:51;;;;;;;1999.90;999.90;;;2.80;99.90;;;;;;5115444;28;20040;-75
2023/10/16 00:29:17;;;;;;;1999.90;999.90;;;2.80;99.90;;;;;;5115199;27;20477;-74
2023/10/16 00:31:43;;;;;;;1999.90;999.90;;;3.00;99.90;;;;;;5114205;28;20071;-74
2023/10/16 00:34:09;;;;;;;1999.90;999.90;;;2.90;99.90;;;;;;5115627;27;20537;-75
2023/10/16 00:36:34;;;;;;;1999.90;999.90;;;2.90;99.90;;;;;;5115400;28;20032;-75
2023/10/16 00:39:12;;;;;;;1999.90;999.90;;;2.90;99.90;;;;;;5115561;28;20461;-74
2023/10/16 00:41:38;;;;;;;1999.90;999.90;;;2.90;99.90;;;;;;5115621;27;20042;-74
2023/10/16 00:44:04;;;;;;;1999.90;999.90;;;2.80;99.90;;;;;;5115655;27;20111;-74
2023/10/16 00:46:36;;;;;;;1999.90;999.90;;;2.70;99.90;;;;;;5115095;27;20119;-74
2023/10/16 00:49:06;;;;;;;1999.90;999.90;;;2.60;99.90;;;;;;5115399;27;20070;-75
2023/10/16 00:51:33;;;;;;;1999.90;999.90;;;2.60;99.90;;;;;;5115277;27;20028;-74
2023/10/16 00:54:00;;;;;;;1999.90;999.90;;;2.60;99.90;;;;;;5115388;27;20036;-74
2023/10/16 00:56:28;;;;;;;1999.90;999.90;;;2.60;99.90;;;;;;5115024;27;20040;-74
2023/10/16 00:58:55;;;;;;;1999.90;999.90;;;2.60;99.90;;;;;;5114685;27;20035;-74
2023/10/16 01:01:24;;;;;;;1999.90;999.90;;;2.50;99.90;;;;;;5115179;27;20036;-74
2023/10/16 01:03:50;;;;;;;1999.90;999.90;;;2.40;99.90;;;;;;5115061;27;20032;-74
2023/10/16 01:06:16;;;;;;;1999.90;999.90;;;2.30;99.90;;;;;;5115208;27;20032;-74
2023/10/16 01:08:46;;;;;;;1999.90;999.90;;;2.40;99.90;;;;;;5113411;28;20039;-74
2023/10/16 01:11:14;;;;;;;1999.90;999.90;;;2.40;99.90;;;;;;5115362;27;20090;-74
2023/10/16 01:13:40;;;;;;;1999.90;999.90;;;2.50;99.90;;;;;;5115281;27;20032;-74
2023/10/16 01:16:07;;;;;;;1999.90;999.90;;;2.50;99.90;;;;;;5113266;28;20032;-74
2023/10/16 01:18:34;;;;;;;1999.90;999.90;;;2.60;99.90;;;;;;5115156;28;20035;-74
2023/10/16 01:21:04;;;;;;;1999.90;999.90;;;2.50;99.90;;;;;;5114831;27;20032;-74
2023/10/16 01:23:31;;;;;;;1999.90;999.90;;;2.50;99.90;;;;;;5115346;27;20150;-74
2023/10/16 01:25:58;;;;;;;1999.90;999.90;;;2.50;99.90;;;;;;5114625;27;20028;-75
2023/10/16 01:28:24;;;;;;;1999.90;999.90;;;2.50;99.90;;;;;;5114808;27;20025;-74
2023/10/16 01:30:49;;;;;;;1999.90;999.90;;;2.40;99.90;;;;;;5116502;27;20028;-73
2023/10/16 01:33:16;;;;;;;1999.90;999.90;;;2.40;99.90;;;;;;5118324;28;20097;-74
2023/10/16 01:35:43;;;;;;;1999.90;999.90;;;2.40;99.90;;;;;;5118180;27;20028;-73
2023/10/16 01:38:15;;;;;;;1999.90;999.90;;;2.40;99.90;;;;;;5118449;27;20028;-74
2023/10/16 01:40:47;;;;;;;1999.90;999.90;;;2.30;99.90;;;;;;5118287;27;20040;-74
2023/10/16 01:43:14;;;;;;;1999.90;999.90;;;2.20;99.90;;;;;;5118401;27;20028;-74
2023/10/16 01:45:49;;;;;;;1999.90;999.90;;;2.20;99.90;;;;;;5117988;28;20536;-73
2023/10/16 01:48:21;;;;;;;1999.90;999.90;;;2.30;99.90;;;;;;5118517;27;20094;-74
2023/10/16 01:50:48;;;;;;;1999.90;999.90;;;2.20;99.90;;;;;;5117433;27;20032;-74
2023/10/16 01:53:15;;;;;;;1999.90;999.90;;;2.10;99.90;;;;;;5118077;27;20032;-74
2023/10/16 01:55:51;;;;;;;1999.90;999.90;;;2.10;99.90;;;;;;5117839;27;20028;-74
2023/10/16 01:58:17;;;;;;;1999.90;999.90;;;2.20;99.90;;;;;;5118494;27;20024;-75
2023/10/16 02:00:43;;;;;;;1999.90;999.90;;;2.20;99.90;;;;;;5117884;27;20032;-74
2023/10/16 02:03:09;;;;;;;1999.90;999.90;;;2.30;99.90;;;;;;5118046;27;20032;-74
2023/10/16 02:05:34;;;;;;;1999.90;999.90;;;2.30;99.90;;;;;;5117838;27;20032;-74
2023/10/16 02:08:00;;;;;;;1999.90;999.90;;;2.30;99.90;;;;;;5117468;28;20032;-74
2023/10/16 02:10:25;;;;;;;1999.90;999.90;;;2.30;99.90;;;;;;5117364;28;20111;-74
2023/10/16 02:12:51;;;;;;;1999.90;999.90;;;2.30;99.90;;;;;;5116306;28;20067;-74
2023/10/16 02:15:21;;;;;;;1999.90;999.90;;;2.10;99.90;;;;;;5118006;28;20039;-74
2023/10/16 02:17:49;;;;;;;1999.90;999.90;;;2.20;99.90;;;;;;5117455;27;20477;-74
2023/10/16 02:20:16;;;;;;;1999.90;999.90;;;2.20;99.90;;;;;;5116586;28;20049;-74
2023/10/16 02:22:41;;;;;;;1999.90;999.90;;;2.10;99.90;;;;;;5117717;27;20050;-74
2023/10/16 02:25:17;;;;;;;1999.90;999.90;;;2.10;99.90;;;;;;5116194;28;20039;-74
2023/10/16 02:27:43;;;;;;;1999.90;999.90;;;2.20;99.90;;;;;;5116006;28;20028;-74
2023/10/16 02:33:10;;;;;;;1999.90;999.90;;;2.00;99.90;;;;;;5117434;27;20059;-74
2023/10/16 02:35:37;;;;;;;1999.90;999.90;;;1.80;99.90;;;;;;5117704;27;20073;-74
2023/10/16 02:38:03;;;;;;;1999.90;999.90;;;1.80;99.90;;;;;;5117419;27;20024;-74
2023/10/16 02:40:32;;;;;;;1999.90;999.90;;;1.80;99.90;;;;;;5117128;27;20032;-73
2023/10/16 02:43:02;;;;;;;1999.90;999.90;;;1.90;99.90;;;;;;5117016;27;20105;-74
2023/10/16 02:45:31;;;;;;;1999.90;999.90;;;1.90;99.90;;;;;;5116131;28;20028;-74
2023/10/16 02:47:57;;;;;;;1999.90;999.90;;;1.80;99.90;;;;;;5116894;27;20413;-74
2023/10/16 02:50:26;;;;;;;1999.90;999.90;;;1.80;99.90;;;;;;5117214;28;20059;-74
2023/10/16 02:52:52;;;;;;;1999.90;999.90;;;1.90;99.90;;;;;;5117269;27;20036;-73
2023/10/16 02:55:18;;;;;;;1999.90;999.90;;;1.90;99.90;;;;;;5117185;27;20115;-74
2023/10/16 02:57:44;;;;;;;1999.90;999.90;;;2.00;99.90;;;;;;5116375;28;20085;-73
2023/10/16 03:00:24;;;;;;;1999.90;999.90;;;1.90;99.90;;;;;;5117154;28;20036;-74
2023/10/16 03:02:50;;;;;;;1999.90;999.90;;;1.90;99.90;;;;;;5115557;28;20036;-74
2023/10/16 03:05:25;;;;;;;1999.90;999.90;;;1.90;99.90;;;;;;5117083;27;20439;-74
2023/10/16 03:07:52;;;;;;;1999.90;999.90;;;1.80;99.90;;;;;;5116843;27;20039;-74
2023/10/16 03:10:20;;;;;;;1999.90;999.90;;;1.90;99.90;;;;;;5115733;27;20072;-74
2023/10/16 03:12:49;;;;;;;1999.90;999.90;;;1.90;99.90;;;;;;5117030;27;20032;-74
2023/10/16 03:15:21;;;;;;;1999.90;999.90;;;1.90;99.90;;;;;;5116822;27;20024;-73
2023/10/16 03:17:55;;;;;;;1999.90;999.90;;;2.00;99.90;;;;;;5115098;28;20133;-74
2023/10/16 03:20:28;;;;;;;1999.90;999.90;;;2.00;99.90;;;;;;5116742;27;20076;-74
2023/10/16 03:22:54;;;;;;;1999.90;999.90;;;2.00;99.90;;;;;;5116684;27;20485;-74
2023/10/16 03:25:50;;;;;;;1999.90;999.90;;;1.90;99.90;;;;;;5116781;28;20050;-74
2023/10/16 03:28:14;;;;;;;1999.90;999.90;;;1.90;99.90;;;;;;5116279;28;20056;-74
2023/10/16 03:30:42;;;;;;;1999.90;999.90;;;1.90;99.90;;;;;;5116455;27;20527;-74
2023/10/16 03:33:08;;;;;;;1999.90;999.90;;;1.90;99.90;;;;;;5115005;28;20032;-74
2023/10/16 03:35:34;;;;;;;1999.90;999.90;;;1.70;99.90;;;;;;5116294;28;20043;-74
2023/10/16 03:38:10;;;;;;;1999.90;999.90;;;1.70;99.90;;;;;;5116321;27;20073;-74
2023/10/16 03:40:36;;;;;;;1999.90;999.90;;;1.70;99.90;;;;;;5116415;28;20043;-74
2023/10/16 03:43:01;;;;;;;1999.90;999.90;;;1.70;99.90;;;;;;5116713;28;20039;-74
2023/10/16 03:45:28;;;;;;;1999.90;999.90;;;1.80;99.90;;;;;;5116318;28;20046;-74
2023/10/16 03:47:57;;;;;;;1999.90;999.90;;;1.80;99.90;;;;;;5114384;28;20039;-74
2023/10/16 03:50:25;;;;;;;1999.90;999.90;;;1.90;99.90;;;;;;5116005;27;20114;-74
2023/10/16 03:52:54;;;;;;;1999.90;999.90;;;1.80;99.90;;;;;;5114983;27;20040;-74
2023/10/16 03:55:24;;;;;;;1999.90;999.90;;;1.80;99.90;;;;;;5116166;27;20036;-74
2023/10/16 03:57:56;;;;;;;1999.90;999.90;;;1.80;99.90;;;;;;5115851;27;20028;-74
2023/10/16 04:00:26;;;;;;;1999.90;999.90;;;1.70;99.90;;;;;;5115752;28;20052;-74
2023/10/16 04:02:52;;;;;;;1999.90;999.90;;;1.80;99.90;;;;;;5114621;28;20043;-73
2023/10/16 04:05:30;;;;;;;1999.90;999.90;;;1.70;99.90;;;;;;5116203;28;20066;-74
2023/10/16 04:07:56;;;;;;;1999.90;999.90;;;1.80;99.90;;;;;;5115988;28;20619;-74
2023/10/16 04:10:28;;;;;;;1999.90;999.90;;;1.80;99.90;;;;;;5115860;27;20492;-76
2023/10/16 04:12:55;;;;;;;1999.90;999.90;;;1.90;99.90;;;;;;5115991;27;20054;-75
2023/10/16 04:18:05;;;;;;;1999.90;999.90;;;1.70;99.90;;;;;;5116314;28;20490;-74
2023/10/16 04:20:43;;;;;;;1999.90;999.90;;;1.70;99.90;;;;;;5115604;28;20048;-75
2023/10/16 04:23:36;;;;;;;1999.90;999.90;;;1.50;99.90;;;;;;5115958;28;20540;-75
2023/10/16 04:31:45;;;;;;;1999.90;999.90;;;1.50;99.90;;;;;;5115980;28;20040;-75
2023/10/16 05:00:57;;;;;;;1999.90;999.90;;;1.60;99.90;;;;;;5114887;27;20507;-75
2023/10/16 05:13:17;;;;;;;1999.90;999.90;;;1.50;99.90;;;;;;5114144;28;20036;-75
2023/10/16 05:15:20;;;;;;;1999.90;999.90;;;1.50;99.90;;;;;;5114505;28;20032;-76
2023/10/16 05:20:45;;;;;;;1999.90;999.90;;;1.50;99.90;;;;;;5113352;28;20028;-75
2023/10/16 06:14:45;;;;;;;1999.90;999.90;;;1.60;99.90;;;;;;5114521;28;20032;-75
2023/10/16 06:17:15;;;;;;;1999.90;999.90;;;1.70;99.90;;;;;;5116184;27;20031;-76
2023/10/16 06:19:42;;;;;;;1999.90;999.90;;;1.70;99.90;;;;;;5118134;27;20105;-76
2023/10/16 06:22:09;;;;;;;1999.90;999.90;;;1.80;99.90;;;;;;5116306;27;20044;-75
2023/10/16 06:24:52;;;;;;;1999.90;999.90;;;1.90;99.90;;;;;;5117646;27;20028;-75
2023/10/16 06:27:22;;;;;;;1999.90;999.90;;;2.00;99.90;;;;;;5117650;27;20493;-75
2023/10/16 06:29:51;;;;;;;1999.90;999.90;;;2.00;99.90;;;;;;5117325;27;20162;-76
2023/10/16 06:32:22;;;;;;;1999.90;999.90;;;2.00;99.90;;;;;;5117400;27;20031;-75
2023/10/16 06:34:57;;;;;;;1999.90;999.90;;;2.10;99.90;;;;;;5116417;27;20031;-78
2023/10/16 06:37:24;;;;;;;1999.90;999.90;;;2.20;99.90;;;;;;5120113;27;20800;-75
2023/10/16 06:39:54;;;;;;;1999.90;999.90;;;2.30;99.90;;;;;;5115928;27;20110;-73
2023/10/16 06:42:23;;;;;;;1999.90;999.90;;;2.30;99.90;;;;;;5116164;27;20047;-73
2023/10/16 06:44:53;;;;;;;1999.90;999.90;;;2.20;99.90;;;;;;5111792;28;20052;-76
2023/10/16 06:47:23;;;;;;;1999.90;999.90;;;2.20;99.90;;;;;;5112549;27;20036;-75
2023/10/16 06:49:54;;;;;;;1999.90;999.90;;;2.30;99.90;;;;;;5116580;27;20023;-75
2023/10/16 06:52:20;;;;;;;1999.90;999.90;;;2.50;99.90;;;;;;5117513;27;20032;-74
2023/10/16 06:54:45;;;;;;;1999.90;999.90;;;2.60;99.90;;;;;;5117324;27;20388;-75
2023/10/16 06:57:11;;;;;;;1999.90;999.90;;;2.60;99.90;;;;;;5116804;28;20090;-75
2023/10/16 06:59:45;;;;;;;1999.90;999.90;;;2.60;99.90;;;;;;5117081;28;20032;-74
2023/10/16 07:02:19;;;;;;;1999.90;999.90;;;2.70;99.90;;;;;;5117015;27;20119;-74
2023/10/16 07:04:46;;;;;;;1999.90;999.90;;;2.80;99.90;;;;;;5117076;27;20103;-75
2023/10/16 07:07:16;;;;;;;1999.90;999.90;;;2.80;99.90;;;;;;5116656;28;20114;-75
2023/10/16 07:09:47;;;;;;;1999.90;999.90;;;2.90;99.90;;;;;;5115113;28;20062;-74
2023/10/16 07:12:16;;;;;;;1999.90;999.90;;;2.90;99.90;;;;;;5117081;27;20036;-74
2023/10/16 07:15:01;;;;;;;1999.90;999.90;;;2.90;99.90;;;;;;5116783;27;20066;-74
2023/10/16 07:17:30;;;;;;;1999.90;999.90;;;3.00;99.90;;;;;;5117078;27;20035;-74
2023/10/16 07:20:00;;;;;;;1999.90;999.90;;;3.10;99.90;;;;;;5115131;28;20119;-75
2023/10/16 07:22:32;;;;;;;1999.90;999.90;;;3.10;99.90;;;;;;5115370;28;20524;-75
2023/10/16 07:25:23;;;;;;;1999.90;999.90;;;3.10;99.90;;;;;;5117134;27;20024;-76
2023/10/16 07:27:48;;;;;;;1999.90;999.90;;;3.20;99.90;;;;;;5116705;27;20115;-75
2023/10/16 07:30:23;;;;;;;1999.90;999.90;;;3.30;99.90;;;;;;5115193;28;20115;-74
2023/10/16 07:32:54;;;;;;;1999.90;999.90;;;3.50;99.90;;;;;;5117122;27;20484;-74
2023/10/16 07:35:21;;;;;;;1999.90;999.90;;;3.50;99.90;;;;;;5116718;27;20557;-75
2023/10/16 07:37:48;;;;;;;1999.90;999.90;;;3.50;99.90;;;;;;5116599;27;20109;-75
2023/10/16 07:40:15;;;;;;;1999.90;999.90;;;3.50;99.90;;;;;;5115237;28;20032;-74
2023/10/16 07:42:41;;;;;;;1999.90;999.90;;;3.60;99.90;;;;;;5117249;27;20032;-74
2023/10/16 07:45:08;;;;;;;1999.90;999.90;;;3.70;99.90;;;;;;5116600;27;20749;-75
2023/10/16 07:47:33;;;;;;;1999.90;999.90;;;3.70;99.90;;;;;;5114607;28;20398;-74
2023/10/16 07:50:00;;;;;;;1999.90;999.90;;;3.80;99.90;;;;;;5116156;28;20043;-75
2023/10/16 07:52:28;;;;;;;1999.90;999.90;;;3.80;99.90;;;;;;5115081;28;20038;-73
2023/10/16 07:54:54;;;;;;;1999.90;999.90;;;3.90;99.90;;;;;;5116121;27;20115;-74
2023/10/16 07:57:21;;;;;;;1999.90;999.90;;;4.00;99.90;;;;;;5114491;28;20032;-74
2023/10/16 07:59:47;;;;;;;1999.90;999.90;;;4.10;99.90;;;;;;5116230;27;20032;-74
2023/10/16 08:02:17;;;;;;;1999.90;999.90;;;4.20;99.90;;;;;;5116021;27;20074;-75
2023/10/16 08:04:43;;;;;;;1999.90;999.90;;;4.40;99.90;;;;;;5114669;28;20535;-75
2023/10/16 08:07:18;;;;;;;1999.90;999.90;;;4.40;99.90;;;;;;5115195;27;20093;-74
2023/10/16 08:09:57;;;;;;;1999.90;999.90;;;4.50;99.90;;;;;;5111743;28;20071;-76
2023/10/16 08:12:35;;;;;;;1999.90;999.90;;;4.70;99.90;;;;;;5116033;27;20131;-80
2023/10/16 08:15:09;;;;;;;1999.90;999.90;;;5.00;99.90;;;;;;5115720;27;20036;-75
2023/10/16 08:17:36;;;;;;;1999.90;999.90;;;5.10;99.90;;;;;;5113777;28;20035;-75
2023/10/16 08:20:08;;;;;;;1999.90;999.90;;;5.20;99.90;;;;;;5115765;27;20032;-77
2023/10/16 08:22:33;;;;;;;1999.90;999.90;;;5.40;99.90;;;;;;5114646;27;20131;-76
2023/10/16 08:24:59;;;;;;;1999.90;999.90;;;5.50;99.90;;;;;;5115681;28;20028;-74
2023/10/16 08:30:32;;;;;;;1999.90;999.90;;;5.60;99.90;;;;;;5115348;27;20485;-75
2023/10/16 08:33:09;;;;;;;1999.90;999.90;;;5.60;99.90;;;;;;5114262;27;20093;-76
2023/10/16 08:35:41;;;;;;;1999.90;999.90;;;5.80;99.90;;;;;;5115815;28;20031;-76
2023/10/16 08:38:36;;;;;;;1999.90;999.90;;;5.90;99.90;;;;;;5115616;28;20039;-75
2023/10/16 08:41:06;;;;;;;1999.90;999.90;;;6.00;99.90;;;;;;5114649;28;20044;-74
2023/10/16 08:46:18;;;;;;;1999.90;999.90;;;6.00;99.90;;;;;;5115971;28;20405;-81
2023/10/16 08:48:52;;;;;;;1999.90;999.90;;;6.00;99.90;;;;;;5114044;28;20043;-74
2023/10/16 08:51:19;;;;;;;1999.90;999.90;;;6.30;99.90;;;;;;5113951;28;20040;-75
2023/10/16 08:53:45;;;;;;;1999.90;999.90;;;6.40;99.90;;;;;;5115094;27;20043;-75
2023/10/16 08:56:17;;;;;;;1999.90;999.90;;;6.50;99.90;;;;;;5115197;27;20032;-75
2023/10/16 08:58:44;;;;;;;1999.90;999.90;;;6.60;99.90;;;;;;5115422;27;20024;-74
2023/10/16 09:01:13;;;;;;;1999.90;999.90;;;6.60;99.90;;;;;;5115053;27;20401;-74
2023/10/16 09:03:44;;;;;;;1999.90;999.90;;;6.60;99.90;;;;;;5115245;27;20809;-75
2023/10/16 09:06:13;;;;;;;1999.90;999.90;;;6.60;99.90;;;;;;5115230;27;20551;-75
2023/10/16 09:08:41;;;;;;;1999.90;999.90;;;6.80;99.90;;;;;;5114930;27;20028;-75
2023/10/16 09:11:10;;;;;;;1999.90;999.90;;;6.90;99.90;;;;;;5115180;27;20032;-74
2023/10/16 09:13:35;;;;;;;1999.90;999.90;;;7.00;99.90;;;;;;5114824;27;20039;-74
2023/10/16 09:16:11;;;;;;;1999.90;999.90;;;7.20;99.90;;;;;;5113305;28;20482;-74
2023/10/16 09:18:39;;;;;;;1999.90;999.90;;;7.30;99.90;;;;;;5113566;28;20834;-74
2023/10/16 09:21:13;;;;;;;1999.90;999.90;;;7.30;99.90;;;;;;5114959;27;20163;-74
2023/10/16 09:23:53;;;;;;;1999.90;999.90;;;7.40;99.90;;;;;;5115119;27;20066;-74
2023/10/16 09:26:28;;;;;;;1999.90;999.90;;;7.50;99.90;;;;;;5111055;28;20036;-75
2023/10/16 09:29:13;;;;;;;1999.90;999.90;;;7.60;99.90;;;;;;5115425;27;20032;-77
2023/10/16 09:31:43;;;;;;;1999.90;999.90;;;7.60;99.90;;;;;;5114260;28;20817;-77
2023/10/16 09:34:10;;;;;;;1999.90;999.90;;;7.70;99.90;;;;;;5115491;27;20061;-77
2023/10/16 09:36:37;;;;;;;1999.90;999.90;;;8.00;99.90;;;;;;5115299;27;20142;-77
2023/10/16 09:39:16;;;;;;;1999.90;999.90;;;8.20;99.90;;;;;;5115624;27;20039;-77
2023/10/16 09:41:43;;;;;;;1999.90;999.90;;;8.20;99.90;;;;;;5113920;28;20505;-77
2023/10/16 09:44:31;;;;;;;1999.90;999.90;;;8.60;99.90;;;;;;5113821;28;20036;-77
2023/10/16 09:46:56;;;;;;;1999.90;999.90;;;8.60;99.90;;;;;;5113594;28;20036;-77
2023/10/16 09:49:27;;;;;;;1999.90;999.90;;;8.80;99.90;;;;;;5115032;27;20074;-77
2023/10/16 09:52:03;;;;;;;1999.90;999.90;;;9.00;99.90;;;;;;5117158;27;20032;-77
2023/10/16 09:54:30;;;;;;;1999.90;999.90;;;9.00;99.90;;;;;;5119053;27;20028;-77
2023/10/16 09:57:01;;;;;;;1999.90;999.90;;;9.00;99.90;;;;;;5119073;27;20680;-78
2023/10/16 09:59:34;;;;;;;1999.90;999.90;;;9.10;99.90;;;;;;5118294;27;20039;-77
2023/10/16 10:02:10;;;;;;;1999.90;999.90;;;9.10;99.90;;;;;;5115164;27;20032;-77
2023/10/16 10:04:43;;;;;;;1999.90;999.90;;;9.10;99.90;;;;;;5116529;27;20024;-77
2023/10/16 10:07:19;;;;;;;1999.90;999.90;;;9.30;99.90;;;;;;5111472;28;20623;-78
2023/10/16 10:09:48;;;;;;;1999.90;999.90;;;9.50;99.90;;;;;;5118665;27;20526;-77
2023/10/16 10:12:52;;;;;;;1999.90;999.90;;;9.60;99.90;;;;;;5117999;22;20044;-77
2023/10/16 10:15:22;;;;;;;1999.90;999.90;;;9.90;99.90;;;;;;5093851;28;20571;-77
2023/10/16 10:17:52;;;;;;;1999.90;999.90;;;9.90;99.90;;;;;;5079330;28;20028;-77
2023/10/16 10:20:23;;;;;;;1999.90;999.90;;;10.00;99.90;;;;;;5078843;28;20067;-78
2023/10/16 10:22:53;;;;;;;1999.90;999.90;;;10.10;99.90;;;;;;5098762;28;20032;-78
2023/10/16 10:25:35;;;;;;;1999.90;999.90;;;10.30;99.90;;;;;;5079199;28;20090;-77
2023/10/16 10:28:17;;;;;;;1999.90;999.90;;;10.30;99.90;;;;;;5097400;28;20037;-77
2023/10/16 10:30:44;;;;;;;1999.90;999.90;;;10.50;99.90;;;;;;5097381;28;20029;-77
2023/10/16 10:33:33;;;;;;;1999.90;999.90;;;10.60;99.90;;;;;;5098706;28;20032;-81
2023/10/16 10:36:49;;;;;;;1999.90;999.90;;;10.60;99.90;;;;;;5080968;28;20462;-78
2023/10/16 10:39:21;;;;;;;1999.90;999.90;;;10.70;99.90;;;;;;5097586;28;20088;-75
2023/10/16 10:41:48;;;;;;;1999.90;999.90;;;10.70;99.90;;;;;;5079214;28;20061;-75
2023/10/16 10:44:15;;;;;;;1999.90;999.90;;;10.90;99.90;;;;;;5079102;28;20497;-76
2023/10/16 10:46:49;;;;;;;1999.90;999.90;;;11.00;99.90;;;;;;5078630;28;20079;-76
2023/10/16 10:49:15;;;;;;;1999.90;999.90;;;11.10;99.90;;;;;;5079063;28;20040;-77
2023/10/16 10:51:47;;;;;;;1999.90;999.90;;;11.20;99.90;;;;;;5078397;28;20119;-76
2023/10/16 10:54:13;;;;;;;1999.90;999.90;;;11.20;99.90;;;;;;5098101;28;20695;-76
2023/10/16 10:56:51;;;;;;;1999.90;999.90;;;11.10;99.90;;;;;;5096861;28;20040;-76
2023/10/16 10:59:41;;;;;;;1999.90;999.90;;;11.20;99.90;;;;;;5079499;28;20112;-77
2023/10/16 11:04:47;;;;;;;1999.90;999.90;;;11.20;99.90;;;;;;5093845;28;20541;-76
2023/10/16 11:07:23;;;;;;;1999.90;999.90;;;11.20;99.90;;;;;;5097910;28;20041;-77
2023/10/16 11:09:49;;;;;;;1999.90;999.90;;;11.50;99.90;;;;;;5080993;28;20033;-77
2023/10/16 11:12:15;;;;;;;1999.90;999.90;;;11.50;99.90;;;;;;5079357;28;20039;-76
2023/10/16 11:14:40;;;;;;;1999.90;999.90;;;11.60;99.90;;;;;;5098412;28;20386;-79
2023/10/16 11:17:06;;;;;;;1999.90;999.90;;;11.70;99.90;;;;;;5098569;28;20787;-78
2023/10/16 11:19:49;;;;;;;1999.90;999.90;;;11.80;99.90;;;;;;5080499;28;20028;-78
2023/10/16 11:22:23;;;;;;;1999.90;999.90;;;11.90;99.90;;;;;;5101601;28;20028;-78
2023/10/16 11:24:50;;;;;;;1999.90;999.90;;;12.00;99.90;;;;;;5101106;28;20028;-78
2023/10/16 11:27:15;;;;;;;1999.90;999.90;;;12.00;99.90;;;;;;5082350;28;20037;-79
2023/10/16 11:29:42;;;;;;;1999.90;999.90;;;12.10;99.90;;;;;;5082925;28;20426;-80
2023/10/16 11:32:11;;;;;;;1999.90;999.90;;;12.30;99.90;;;;;;5082703;28;20040;-78
2023/10/16 11:35:12;;;;;;;1999.90;999.90;;;12.50;99.90;;;;;;5105680;28;20024;-80
2023/10/16 11:37:39;;;;;;;1999.90;999.90;;;12.70;99.90;;;;;;5082472;28;21089;-76
2023/10/16 11:40:18;;;;;;;1999.90;999.90;;;12.60;99.90;;;;;;5079066;28;20111;-79
2023/10/16 11:42:47;;;;;;;1999.90;999.90;;;12.60;99.90;;;;;;5098907;28;20036;-79
2023/10/16 11:45:20;;;;;;;1999.90;999.90;;;12.60;99.90;;;;;;5079445;28;20036;-76
2023/10/16 11:50:40;;;;;;;1999.90;999.90;;;12.70;99.90;;;;;;5076203;28;20029;-77
2023/10/16 11:53:07;;;;;;;1999.90;999.90;;;12.70;99.90;;;;;;5057577;28;20033;-76
2023/10/16 11:55:36;;;;;;;1999.90;999.90;;;12.80;99.90;;;;;;5057879;28;20091;-77
2023/10/16 11:58:11;;;;;;;1999.90;999.90;;;13.00;99.90;;;;;;5090854;28;20070;-75
2023/10/16 12:00:42;;;;;;;1999.90;999.90;;;12.80;99.60;;;;;;5078391;28;20043;-81
2023/10/16 12:03:14;;;;;;;1999.90;999.90;;;12.90;99.90;;;;;;5096058;28;20024;-77
2023/10/16 12:05:42;;;;;;;1999.90;999.90;;;12.90;99.00;;;;;;5077734;28;20890;-77
2023/10/16 12:08:08;;;;;;;1999.90;999.90;;;12.90;98.60;;;;;;5078992;28;20032;-78
2023/10/16 12:10:35;;;;;;;1999.90;999.90;;;13.10;98.90;;;;;;5077506;28;20493;-81
2023/10/16 12:13:03;;;;;;;1999.90;999.90;;;13.30;99.70;;;;;;5098027;28;20086;-78
2023/10/16 12:15:32;;;;;;;1999.90;999.90;;;13.30;98.60;;;;;;5094891;28;20039;-78
2023/10/16 12:18:00;;;;;;;1999.90;999.90;;;13.30;98.50;;;;;;5077756;28;20501;-81
2023/10/16 12:20:27;;;;;;;1999.90;999.90;;;13.40;99.20;;;;;;5095736;28;20028;-77
2023/10/16 12:22:54;;;;;;;1999.90;999.90;;;13.50;97.70;;;;;;5095717;28;20635;-76
2023/10/16 12:25:21;;;;;;;1999.90;999.90;;;13.50;96.40;;;;;;5077356;28;20032;-76
2023/10/16 12:27:48;;;;;;;1999.90;999.90;;;13.60;97.80;;;;;;5077115;28;20075;-76
2023/10/16 12:30:14;;;;;;;1999.90;999.90;;;13.50;97.30;;;;;;5077061;28;20056;-76
2023/10/16 12:32:40;;;;;;;1999.90;999.90;;;13.60;98.40;;;;;;5077624;28;20168;-76
2023/10/16 12:35:08;;;;;;;1999.90;999.90;;;13.80;98.30;;;;;;5095486;28;20032;-75
2023/10/16 12:37:34;;;;;;;1999.90;999.90;;;13.80;96.50;;;;;;5095164;28;20115;-77
2023/10/16 12:40:24;;;;;;;1999.90;999.90;;;14.00;98.30;;;;;;5073554;28;20082;-76
2023/10/16 12:42:45;;;;;;;1999.90;999.90;;;14.00;97.80;;;;;;5075315;28;20041;-77
2023/10/16 12:45:11;;;;;;;1999.90;999.90;;;14.10;96.20;;;;;;5074504;28;20685;-77
2023/10/16 12:47:37;;;;;;;1999.90;999.90;;;14.30;95.90;;;;;;5073901;28;20142;-79
2023/10/16 12:50:04;;;;;;;1999.90;999.90;;;14.30;97.10;;;;;;5074369;28;20380;-78
2023/10/16 12:52:31;;;;;;;1999.90;999.90;;;14.30;97.30;;;;;;5073753;28;20044;-77
2023/10/16 12:54:57;;;;;;;1999.90;999.90;;;14.40;96.60;;;;;;5074950;28;20033;-78
2023/10/16 12:57:24;;;;;;;1999.90;999.90;;;14.40;98.00;;;;;;5078343;28;20575;-77
2023/10/16 12:59:49;;;;;;;1999.90;999.90;;;14.00;96.30;;;;;;5077301;28;20029;-78
2023/10/16 13:02:24;;;;;;;1999.90;999.90;;;13.90;97.60;;;;;;5076794;28;20370;-77
2023/10/16 13:04:51;;;;;;;1999.90;999.90;;;13.90;97.40;;;;;;5076932;28;20502;-76
2023/10/16 13:07:17;;;;;;;1999.90;999.90;;;14.00;97.60;;;;;;5076856;28;20032;-77
2023/10/16 13:09:43;;;;;;;1999.90;999.90;;;13.80;95.60;;;;;;5094798;28;20037;-76
2023/10/16 13:12:10;;;;;;;1999.90;999.90;;;13.70;95.60;;;;;;5075986;28;20036;-77
2023/10/16 13:14:35;;;;;;;1999.90;999.90;;;13.70;96.70;;;;;;5076184;28;20071;-77
2023/10/16 13:17:01;;;;;;;1999.90;999.90;;;13.70;96.40;;;;;;5095208;28;20449;-79
2023/10/16 13:19:27;;;;;;;1999.90;999.90;;;13.60;96.40;;;;;;5079001;28;20028;-77
2023/10/16 13:21:53;;;;;;;1999.90;999.90;;;13.50;95.60;;;;;;5076359;28;20039;-78
2023/10/16 13:24:23;;;;;;;1999.90;999.90;;;13.30;95.30;;;;;;5076891;28;20055;-77
2023/10/16 13:26:52;;;;;;;1999.90;999.90;;;13.20;95.70;;;;;;5079122;28;20087;-76
2023/10/16 13:29:18;;;;;;;1999.90;999.90;;;13.20;96.20;;;;;;5080152;28;20041;-77
2023/10/16 13:31:45;;;;;;;1999.90;999.90;;;13.20;96.50;;;;;;5080046;28;20498;-77
2023/10/16 13:34:13;;;;;;;1999.90;999.90;;;13.10;96.80;;;;;;5099862;28;20033;-78
2023/10/16 13:37:01;;;;;;;1999.90;999.90;;;13.10;96.70;;;;;;5101552;28;20128;-77
2023/10/16 13:39:48;;;;;;;1999.90;999.90;;;13.30;96.80;;;;;;5098877;28;20086;-78
2023/10/16 13:42:14;;;;;;;1999.90;999.90;;;13.40;96.30;;;;;;5079222;28;20052;-75
2023/10/16 13:44:40;;;;;;;1999.90;999.90;;;13.30;96.10;;;;;;5065253;28;20846;-75
2023/10/16 13:47:08;;;;;;;1999.90;999.90;;;13.30;95.10;;;;;;5084908;28;20037;-75
2023/10/16 13:49:37;;;;;;;1999.90;999.90;;;13.20;95.70;;;;;;5098027;28;20464;-75
2023/10/16 13:52:07;;;;;;;1999.90;999.90;;;13.20;96.70;;;;;;5079328;28;20032;-75
2023/10/16 13:54:38;;;;;;;1999.90;999.90;;;13.30;95.40;;;;;;5094120;28;20036;-75
2023/10/16 13:57:04;;;;;;;1999.90;999.90;;;13.20;95.50;;;;;;5058898;28;20044;-75
2023/10/16 13:59:30;;;;;;;1999.90;999.90;;;13.10;96.00;;;;;;5083481;28;20043;-75
2023/10/16 14:01:56;;;;;;;1999.90;999.90;;;13.20;95.80;;;;;;5098498;28;20041;-75
2023/10/16 14:04:25;;;;;;;1999.90;999.90;;;13.10;95.50;;;;;;5079212;28;20032;-76
2023/10/16 14:06:54;;;;;;;1999.90;999.90;;;13.10;95.30;;;;;;5096901;28;20067;-77
2023/10/16 14:09:27;;;;;;;1999.90;999.90;;;13.10;95.30;;;;;;5097575;28;20112;-76
2023/10/16 14:11:54;;;;;;;1999.90;999.90;;;13.10;95.00;;;;;;5078858;28;20037;-76
2023/10/16 14:14:21;;;;;;;1999.90;999.90;;;13.10;95.60;;;;;;5097103;28;20032;-76